createdAt,value
2019-05-20T00:00:08.248Z,28.80
2019-05-20T00:02:38.939Z,29.27
2019-05-20T00:05:08.287Z,30.67
2019-05-20T00:07:37.568Z,31.53
2019-05-20T00:10:10.004Z,28.87
2019-05-20T00:12:39.290Z,26.73
2019-05-20T00:15:09.122Z,27.53
2019-05-20T00:17:38.399Z,27.17
2019-05-20T00:20:08.242Z,27.20
2019-05-20T00:22:37.522Z,27.47
2019-05-20T00:25:09.758Z,26.60
2019-05-20T00:27:39.049Z,26.73
2019-05-20T00:30:08.944Z,26.60
2019-05-20T00:32:41.854Z,24.70
2019-05-20T00:35:09.358Z,25.80
2019-05-20T00:37:38.642Z,24.97
2019-05-20T00:40:08.647Z,25.57
2019-05-20T00:42:37.937Z,25.60
2019-05-20T00:45:07.659Z,24.77
2019-05-20T00:47:36.952Z,25.03
2019-05-20T00:50:06.583Z,25.00
2019-05-20T00:52:35.871Z,25.33
2019-05-20T00:55:07.203Z,25.40
2019-05-20T00:57:37.564Z,25.10
2019-05-20T01:00:08.860Z,25.40
2019-05-20T01:02:38.204Z,26.63
2019-05-20T01:05:07.647Z,25.83
2019-05-20T01:07:36.931Z,30.43
2019-05-20T01:10:07.437Z,32.13
2019-05-20T01:12:36.719Z,36.20
2019-05-20T01:15:06.547Z,34.07
2019-05-20T01:17:35.907Z,37.47
2019-05-20T01:20:08.535Z,36.20
2019-05-20T01:22:37.821Z,36.23
2019-05-20T01:25:07.251Z,37.77
2019-05-20T01:27:36.627Z,41.07
2019-05-20T01:30:08.861Z,38.90
2019-05-20T01:32:38.206Z,40.87
2019-05-20T01:35:08.035Z,44.97
2019-05-20T01:37:37.327Z,43.47
2019-05-20T01:40:06.692Z,44.13
2019-05-20T01:42:36.947Z,45.93
2019-05-20T01:45:06.785Z,45.37
2019-05-20T01:47:36.080Z,51.27
2019-05-20T01:50:08.671Z,54.43
2019-05-20T01:52:37.989Z,53.80
2019-05-20T01:55:08.025Z,58.67
2019-05-20T01:57:37.312Z,58.93
2019-05-20T02:00:08.868Z,61.63
2019-05-20T02:02:38.199Z,61.57
2019-05-20T02:05:08.572Z,60.37
2019-05-20T02:07:37.872Z,61.27
2019-05-20T02:10:08.776Z,62.50
2019-05-20T02:12:38.133Z,64.47
2019-05-20T02:15:19.044Z,62.70
2019-05-20T02:17:48.329Z,68.17
2019-05-20T02:20:17.630Z,67.00
2019-05-20T02:22:46.915Z,64.47
2019-05-20T02:25:18.339Z,69.87
2019-05-20T02:27:47.744Z,64.90
2019-05-20T02:30:17.172Z,67.47
2019-05-20T02:32:46.481Z,67.80
2019-05-20T02:35:15.771Z,66.80
2019-05-20T02:37:45.068Z,66.30
2019-05-20T02:40:14.491Z,64.23
2019-05-20T02:42:43.789Z,62.53
2019-05-20T02:45:13.216Z,58.03
2019-05-20T02:47:42.508Z,56.87
2019-05-20T02:50:11.932Z,56.37
2019-05-20T02:52:41.225Z,57.10
2019-05-20T02:55:11.247Z,57.50
2019-05-20T02:57:40.540Z,57.10
2019-05-20T03:00:10.269Z,58.77
2019-05-20T03:02:39.567Z,62.00
2019-05-20T03:05:09.787Z,57.40
2019-05-20T03:07:39.086Z,58.67
2019-05-20T03:10:08.949Z,58.30
2019-05-20T03:12:38.262Z,55.33
2019-05-20T03:15:07.698Z,53.97
2019-05-20T03:17:36.982Z,55.47
2019-05-20T03:20:06.660Z,53.90
2019-05-20T03:22:35.993Z,56.03
2019-05-20T03:25:07.128Z,55.80
2019-05-20T03:27:36.411Z,52.90
2019-05-20T03:30:07.056Z,54.73
2019-05-20T03:32:36.928Z,54.17
2019-05-20T03:35:07.875Z,51.07
2019-05-20T03:37:37.206Z,53.57
2019-05-20T03:40:06.830Z,51.37
2019-05-20T03:42:36.135Z,48.23
2019-05-20T03:45:08.993Z,49.50
2019-05-20T03:47:38.291Z,47.17
2019-05-20T03:50:08.230Z,48.93
2019-05-20T03:52:37.543Z,46.17
2019-05-20T03:55:08.616Z,49.03
2019-05-20T03:57:37.911Z,46.60
2019-05-20T04:00:08.939Z,43.00
2019-05-20T04:02:38.238Z,43.00
2019-05-20T04:05:07.599Z,42.70
2019-05-20T04:07:36.896Z,41.03
2019-05-20T04:10:07.394Z,43.47
2019-05-20T04:12:36.705Z,40.73
2019-05-20T04:15:06.415Z,42.43
2019-05-20T04:17:35.748Z,40.13
2019-05-20T04:20:07.425Z,40.67
2019-05-20T04:22:36.760Z,40.33
2019-05-20T04:25:06.996Z,40.30
2019-05-20T04:27:36.365Z,39.40
2019-05-20T04:30:07.860Z,39.27
2019-05-20T04:32:37.164Z,40.83
2019-05-20T04:35:21.401Z,40.93
2019-05-20T04:37:39.128Z,39.63
2019-05-20T04:40:08.679Z,41.00
2019-05-20T04:42:37.967Z,39.67
2019-05-20T04:45:08.095Z,40.23
2019-05-20T04:47:37.554Z,40.47
2019-05-20T04:50:08.715Z,42.37
2019-05-20T04:52:37.979Z,40.63
2019-05-20T04:55:07.816Z,40.47
2019-05-20T04:57:37.115Z,41.13
2019-05-20T05:00:09.975Z,40.20
2019-05-20T05:02:43.429Z,38.87
2019-05-20T05:05:11.526Z,40.43
2019-05-20T05:07:40.799Z,39.47
2019-05-20T05:10:10.639Z,39.17
2019-05-20T05:12:39.986Z,41.40
2019-05-20T05:15:09.929Z,38.47
2019-05-20T05:17:39.229Z,37.67
2019-05-20T05:20:17.511Z,37.43
2019-05-20T05:22:39.710Z,38.03
2019-05-20T05:25:09.947Z,34.20
2019-05-20T05:27:39.245Z,35.13
2019-05-20T05:30:08.764Z,36.63
2019-05-20T05:32:41.334Z,35.83
2019-05-20T05:35:15.075Z,36.37
2019-05-20T05:37:44.538Z,35.53
2019-05-20T05:40:14.573Z,34.67
2019-05-20T05:42:43.849Z,34.90
2019-05-20T05:45:13.474Z,35.77
2019-05-20T05:47:42.792Z,36.10
2019-05-20T05:50:12.295Z,34.67
2019-05-20T05:52:41.574Z,35.23
2019-05-20T05:55:11.983Z,33.10
2019-05-20T05:57:41.275Z,34.80
2019-05-20T06:00:10.997Z,35.63
2019-05-20T06:02:40.349Z,35.27
2019-05-20T06:05:09.727Z,34.87
2019-05-20T06:07:39.015Z,37.53
2019-05-20T06:10:09.231Z,35.60
2019-05-20T06:12:38.523Z,35.67
2019-05-20T06:15:08.872Z,35.17
2019-05-20T06:17:39.218Z,37.13
2019-05-20T06:20:10.361Z,36.83
2019-05-20T06:22:39.707Z,34.47
2019-05-20T06:25:09.756Z,33.13
2019-05-20T06:27:39.107Z,32.33
2019-05-20T06:30:11.040Z,35.27
2019-05-20T06:32:40.807Z,40.57
2019-05-20T06:35:10.905Z,39.07
2019-05-20T06:37:42.090Z,39.27
2019-05-20T06:40:12.840Z,40.63
2019-05-20T06:42:42.114Z,38.70
2019-05-20T06:45:11.481Z,38.07
2019-05-20T06:47:40.762Z,37.27
2019-05-20T06:50:11.382Z,36.50
2019-05-20T06:52:40.714Z,36.33
2019-05-20T06:55:10.579Z,34.43
2019-05-20T06:57:39.932Z,33.80
2019-05-20T07:00:09.851Z,32.90
2019-05-20T07:02:39.207Z,33.73
2019-05-20T07:05:10.135Z,33.73
2019-05-20T07:07:39.495Z,33.97
2019-05-20T07:10:09.025Z,33.70
2019-05-20T07:12:41.573Z,34.00
2019-05-20T07:15:09.948Z,35.87
2019-05-20T07:17:40.864Z,35.07
2019-05-20T07:20:10.689Z,32.43
2019-05-20T07:22:55.141Z,33.03
2019-05-20T07:25:11.181Z,32.87
2019-05-20T07:27:40.475Z,34.47
2019-05-20T07:30:14.831Z,35.60
2019-05-20T07:32:41.540Z,35.70
2019-05-20T07:35:26.287Z,36.07
2019-05-20T07:37:42.347Z,37.03
2019-05-20T07:40:12.671Z,37.57
2019-05-20T07:42:41.973Z,37.87
2019-05-20T07:45:11.263Z,36.20
2019-05-20T07:47:40.643Z,37.77
2019-05-20T07:50:11.559Z,41.23
2019-05-20T07:52:42.188Z,42.23
2019-05-20T07:55:12.287Z,38.60
2019-05-20T07:57:43.186Z,39.17
2019-05-20T08:00:12.814Z,39.37
2019-05-20T08:02:42.483Z,43.90
2019-05-20T08:05:11.785Z,45.13
2019-05-20T08:07:51.911Z,41.90
2019-05-20T08:10:12.208Z,40.10
2019-05-20T08:12:41.506Z,39.83
2019-05-20T08:15:10.866Z,43.80
2019-05-20T08:17:40.161Z,42.57
2019-05-20T08:20:09.583Z,44.07
2019-05-20T08:22:38.892Z,37.23
2019-05-20T08:25:09.075Z,35.13
2019-05-20T08:27:38.386Z,35.40
2019-05-20T08:30:09.312Z,32.93
2019-05-20T08:32:38.691Z,34.17
2019-05-20T08:35:09.131Z,34.47
2019-05-20T08:37:45.367Z,36.03
2019-05-20T08:40:09.735Z,35.23
2019-05-20T08:42:39.032Z,34.40
2019-05-20T08:45:08.556Z,34.40
2019-05-20T08:47:37.842Z,35.77
2019-05-20T08:50:12.268Z,35.67
2019-05-20T08:52:39.089Z,37.17
2019-05-20T08:55:09.490Z,34.47
2019-05-20T08:57:38.776Z,34.90
2019-05-20T09:00:11.155Z,35.50
2019-05-20T09:02:40.505Z,35.77
2019-05-20T09:05:11.089Z,38.33
2019-05-20T09:07:40.380Z,38.97
2019-05-20T09:10:09.816Z,38.20
2019-05-20T09:12:39.105Z,34.90
2019-05-20T09:15:09.827Z,30.17
2019-05-20T09:17:39.425Z,29.33
2019-05-20T09:20:10.259Z,28.20
2019-05-20T09:22:39.540Z,27.53
2019-05-20T09:25:10.082Z,28.87
2019-05-20T09:27:39.712Z,27.63
2019-05-20T09:30:11.411Z,28.30
2019-05-20T09:32:43.045Z,32.30
2019-05-20T09:35:11.970Z,30.47
2019-05-20T09:37:41.360Z,31.03
2019-05-20T09:40:13.246Z,32.87
2019-05-20T09:42:42.579Z,33.30
2019-05-20T09:45:11.944Z,32.90
2019-05-20T09:47:41.234Z,32.13
2019-05-20T09:50:10.769Z,31.50
2019-05-20T09:52:40.047Z,30.60
2019-05-20T09:55:09.583Z,32.47
2019-05-20T09:57:38.870Z,29.43
2019-05-20T10:00:08.703Z,29.70
2019-05-20T10:02:38.682Z,29.07
2019-05-20T10:05:08.239Z,28.03
2019-05-20T10:07:37.558Z,28.70
2019-05-20T10:10:07.799Z,29.43
2019-05-20T10:12:45.984Z,29.63
2019-05-20T10:15:08.658Z,29.63
2019-05-20T10:17:37.986Z,30.57
2019-05-20T10:20:07.719Z,31.17
2019-05-20T10:22:37.002Z,30.97
2019-05-20T10:25:07.856Z,31.37
2019-05-20T10:27:37.207Z,31.53
2019-05-20T10:30:08.507Z,31.10
2019-05-20T10:32:37.859Z,32.20
2019-05-20T10:35:08.597Z,31.23
2019-05-20T10:37:37.883Z,33.47
2019-05-20T10:40:07.686Z,33.07
2019-05-20T10:42:37.043Z,32.93
2019-05-20T10:45:06.672Z,34.83
2019-05-20T10:47:35.955Z,37.27
2019-05-20T10:50:09.153Z,36.00
2019-05-20T10:52:38.436Z,35.77
2019-05-20T10:55:08.154Z,34.20
2019-05-20T10:57:37.531Z,34.40
2019-05-20T11:00:08.207Z,35.63
2019-05-20T11:02:37.529Z,33.80
2019-05-20T11:05:07.547Z,34.33
2019-05-20T11:07:36.838Z,34.80
2019-05-20T11:10:07.876Z,32.67
2019-05-20T11:12:37.163Z,34.73
2019-05-20T11:15:09.543Z,35.57
2019-05-20T11:17:38.845Z,33.90
2019-05-20T11:20:09.100Z,36.50
2019-05-20T11:22:38.395Z,37.40
2019-05-20T11:25:08.123Z,37.83
2019-05-20T11:27:37.412Z,36.10
2019-05-20T11:30:07.726Z,33.90
2019-05-20T11:32:37.096Z,33.33
2019-05-20T11:35:07.814Z,32.37
2019-05-20T11:37:37.109Z,33.93
2019-05-20T11:40:12.067Z,33.07
2019-05-20T11:42:41.710Z,31.93
2019-05-20T11:45:13.602Z,33.27
2019-05-20T11:47:44.620Z,33.43
2019-05-20T11:50:15.916Z,38.83
2019-05-20T11:52:45.265Z,36.17
2019-05-20T11:55:14.684Z,35.80
2019-05-20T11:57:43.975Z,37.33
2019-05-20T12:00:13.696Z,35.53
2019-05-20T12:02:43.005Z,35.47
2019-05-20T12:05:12.527Z,36.07
2019-05-20T12:07:41.873Z,35.67
2019-05-20T12:10:11.735Z,35.90
2019-05-20T12:12:41.034Z,35.57
2019-05-20T12:15:10.871Z,36.97
2019-05-20T12:17:40.162Z,39.43
2019-05-20T12:20:11.928Z,34.27
2019-05-20T12:22:40.940Z,36.87
2019-05-20T12:25:10.768Z,35.87
2019-05-20T12:27:40.050Z,34.20
2019-05-20T12:30:09.990Z,33.60
2019-05-20T12:32:39.293Z,34.70
2019-05-20T12:35:09.062Z,33.60
2019-05-20T12:37:38.436Z,35.67
2019-05-20T12:40:08.788Z,33.13
2019-05-20T12:42:38.287Z,34.87
2019-05-20T12:45:09.613Z,32.17
2019-05-20T12:47:38.946Z,33.97
2019-05-20T12:50:09.498Z,33.40
2019-05-20T12:52:38.788Z,33.53
2019-05-20T12:55:10.021Z,35.60
2019-05-20T12:57:39.412Z,36.87
2019-05-20T13:00:11.104Z,38.87
2019-05-20T13:02:41.973Z,40.83
2019-05-20T13:05:11.844Z,37.43
2019-05-20T13:07:41.155Z,40.73
2019-05-20T13:10:27.877Z,41.33
2019-05-20T13:12:42.271Z,42.13
2019-05-20T13:15:13.605Z,37.43
2019-05-20T13:17:45.105Z,38.37
2019-05-20T13:20:14.275Z,41.93
2019-05-20T13:22:43.606Z,41.73
2019-05-20T13:25:13.960Z,40.40
2019-05-20T13:27:43.271Z,39.77
2019-05-20T13:30:13.101Z,39.13
2019-05-20T13:32:42.418Z,41.37
2019-05-20T13:35:12.234Z,41.83
2019-05-20T13:37:41.537Z,41.77
2019-05-20T13:40:11.070Z,41.00
2019-05-20T13:42:40.379Z,40.00
2019-05-20T13:45:10.156Z,41.43
2019-05-20T13:47:39.447Z,40.70
2019-05-20T13:50:09.597Z,39.37
2019-05-20T13:52:38.889Z,38.70
2019-05-20T13:55:08.543Z,38.80
2019-05-20T13:57:38.902Z,39.20
2019-05-20T14:00:09.123Z,39.20
2019-05-20T14:02:38.431Z,40.03
2019-05-20T14:05:08.055Z,38.87
2019-05-20T14:07:37.342Z,39.33
2019-05-20T14:10:10.511Z,38.07
2019-05-20T14:12:39.798Z,38.37
2019-05-20T14:15:09.432Z,37.80
2019-05-20T14:17:38.706Z,39.20
2019-05-20T14:20:08.752Z,36.23
2019-05-20T14:22:38.034Z,39.00
2019-05-20T14:25:07.972Z,40.07
2019-05-20T14:27:37.261Z,36.13
2019-05-20T14:30:08.239Z,37.23
2019-05-20T14:32:37.531Z,36.70
2019-05-20T14:35:06.966Z,38.83
2019-05-20T14:37:36.272Z,38.63
2019-05-20T14:40:06.715Z,37.63
2019-05-20T14:42:35.991Z,37.37
2019-05-20T14:45:06.522Z,37.43
2019-05-20T14:47:35.805Z,39.37
2019-05-20T14:50:09.104Z,38.47
2019-05-20T14:52:38.455Z,37.47
2019-05-20T14:55:08.131Z,39.60
2019-05-20T14:57:37.722Z,37.67
2019-05-20T15:00:10.097Z,38.03
2019-05-20T15:02:39.383Z,33.90
2019-05-20T15:05:09.028Z,35.27
2019-05-20T15:07:38.313Z,35.90
2019-05-20T15:10:10.080Z,34.03
2019-05-20T15:12:39.353Z,36.37
2019-05-20T15:15:09.186Z,37.40
2019-05-20T15:17:38.570Z,35.47
2019-05-20T15:20:08.845Z,35.47
2019-05-20T15:22:38.206Z,33.97
2019-05-20T15:25:08.437Z,34.33
2019-05-20T15:27:37.799Z,34.23
2019-05-20T15:30:08.420Z,36.90
2019-05-20T15:32:37.738Z,35.07
2019-05-20T15:35:07.361Z,38.90
2019-05-20T15:37:36.661Z,35.33
2019-05-20T15:40:06.390Z,33.37
2019-05-20T15:42:35.765Z,36.53
2019-05-20T15:45:10.193Z,35.03
2019-05-20T15:47:39.584Z,37.40
2019-05-20T15:50:10.433Z,35.47
2019-05-20T15:52:40.125Z,36.53
2019-05-20T15:55:09.831Z,36.33
2019-05-20T15:57:39.176Z,36.70
2019-05-20T16:00:09.477Z,38.27
2019-05-20T16:02:38.842Z,35.37
2019-05-20T16:05:08.764Z,35.07
2019-05-20T16:07:39.030Z,35.50
2019-05-20T16:10:08.723Z,35.17
2019-05-20T16:12:38.050Z,35.13
2019-05-20T16:15:08.169Z,35.47
2019-05-20T16:17:37.544Z,35.47
2019-05-20T16:20:07.935Z,36.93
2019-05-20T16:22:37.427Z,33.10
2019-05-20T16:25:11.080Z,35.93
2019-05-20T16:27:40.731Z,33.93
2019-05-20T16:30:11.202Z,33.13
2019-05-20T16:32:40.491Z,33.50
2019-05-20T16:35:10.017Z,32.60
2019-05-20T16:37:39.413Z,32.10
2019-05-20T16:40:10.631Z,32.17
2019-05-20T16:42:40.248Z,31.03
2019-05-20T16:45:11.959Z,32.37
2019-05-20T16:47:41.499Z,31.40
2019-05-20T16:50:12.253Z,30.40
2019-05-20T16:52:43.102Z,32.00
2019-05-20T16:55:12.530Z,29.60
2019-05-20T16:57:41.865Z,29.97
2019-05-20T17:00:30.024Z,29.87
2019-05-20T17:02:43.890Z,30.43
2019-05-20T17:05:13.385Z,30.30
2019-05-20T17:07:42.679Z,31.83
2019-05-20T17:10:12.504Z,29.00
2019-05-20T17:12:41.807Z,28.30
2019-05-20T17:15:12.107Z,28.53
2019-05-20T17:17:41.420Z,29.90
2019-05-20T17:20:10.879Z,28.27
2019-05-20T17:22:40.407Z,28.17
2019-05-20T17:25:12.381Z,28.77
2019-05-20T17:27:41.676Z,31.37
2019-05-20T17:30:11.394Z,29.00
2019-05-20T17:32:40.901Z,30.17
2019-05-20T17:35:10.774Z,32.33
2019-05-20T17:37:41.624Z,31.77
2019-05-20T17:40:11.352Z,28.83
2019-05-20T17:42:40.669Z,30.50
2019-05-20T17:45:10.222Z,29.40
2019-05-20T17:47:41.099Z,29.13
2019-05-20T17:50:11.344Z,29.97
2019-05-20T17:52:40.714Z,29.40
2019-05-20T17:55:10.076Z,30.63
2019-05-20T17:57:39.460Z,27.50
2019-05-20T18:00:11.447Z,29.20
2019-05-20T18:02:40.805Z,31.20
2019-05-20T18:05:10.275Z,29.87
2019-05-20T18:07:39.593Z,28.57
2019-05-20T18:10:09.918Z,28.30
2019-05-20T18:12:39.203Z,28.47
2019-05-20T18:15:08.738Z,28.23
2019-05-20T18:17:38.021Z,28.53
2019-05-20T18:20:07.765Z,29.23
2019-05-20T18:22:37.070Z,27.97
2019-05-20T18:25:08.410Z,28.90
2019-05-20T18:27:38.488Z,26.17
2019-05-20T18:30:09.986Z,28.63
2019-05-20T18:32:39.349Z,25.93
2019-05-20T18:35:08.916Z,26.03
2019-05-20T18:37:39.568Z,25.47
2019-05-20T18:40:14.361Z,25.07
2019-05-20T18:42:40.560Z,25.83
2019-05-20T18:45:10.312Z,26.37
2019-05-20T18:47:39.693Z,27.97
2019-05-20T18:50:10.576Z,26.93
2019-05-20T18:52:39.866Z,25.57
2019-05-20T18:55:09.504Z,25.87
2019-05-20T18:57:41.619Z,25.50
2019-05-20T19:00:12.370Z,25.07
2019-05-20T19:02:41.657Z,26.30
2019-05-20T19:05:11.208Z,27.23
2019-05-20T19:07:40.604Z,24.87
2019-05-20T19:10:10.927Z,25.00
2019-05-20T19:12:40.261Z,27.37
2019-05-20T19:15:10.216Z,24.90
2019-05-20T19:17:41.342Z,27.37
2019-05-20T19:20:11.866Z,27.23
2019-05-20T19:22:41.158Z,29.50
2019-05-20T19:25:10.610Z,30.70
2019-05-20T19:27:39.909Z,28.80
2019-05-20T19:30:10.753Z,29.30
2019-05-20T19:32:40.110Z,28.37
2019-05-20T19:35:09.572Z,27.77
2019-05-20T19:37:39.088Z,28.70
2019-05-20T19:40:10.148Z,29.63
2019-05-20T19:42:39.852Z,28.80
2019-05-20T19:45:09.428Z,29.23
2019-05-20T19:47:39.722Z,29.23
2019-05-20T19:50:09.455Z,30.60
2019-05-20T19:52:38.815Z,29.20
2019-05-20T19:55:08.344Z,31.33
2019-05-20T19:57:37.639Z,29.50
2019-05-20T20:00:08.056Z,30.30
2019-05-20T20:02:38.420Z,29.93
2019-05-20T20:05:08.350Z,29.67
2019-05-20T20:07:37.638Z,29.13
2019-05-20T20:10:07.388Z,29.80
2019-05-20T20:12:36.759Z,28.57
2019-05-20T20:15:06.706Z,28.33
2019-05-20T20:17:35.987Z,28.97
2019-05-20T20:20:06.355Z,28.73
2019-05-20T20:22:35.694Z,27.60
2019-05-20T20:25:06.351Z,28.73
2019-05-20T20:27:35.676Z,28.63
2019-05-20T20:30:09.166Z,29.73
2019-05-20T20:32:39.007Z,29.47
2019-05-20T20:35:08.864Z,32.37
2019-05-20T20:37:38.151Z,30.83
2019-05-20T20:40:07.909Z,28.93
2019-05-20T20:42:37.291Z,32.17
2019-05-20T20:45:06.759Z,29.93
2019-05-20T20:47:41.843Z,30.03
2019-05-20T20:50:07.314Z,30.47
2019-05-20T20:52:36.602Z,30.90
2019-05-20T20:55:06.929Z,31.70
2019-05-20T20:57:37.237Z,34.33
2019-05-20T21:00:09.274Z,31.63
2019-05-20T21:02:52.258Z,32.53
2019-05-20T21:05:09.710Z,31.80
2019-05-20T21:07:39.177Z,32.33
2019-05-20T21:10:08.989Z,32.07
2019-05-20T21:12:38.304Z,32.97
2019-05-20T21:15:08.104Z,40.23
2019-05-20T21:17:37.400Z,40.37
2019-05-20T21:20:08.028Z,41.37
2019-05-20T21:22:37.397Z,39.07
2019-05-20T21:25:07.269Z,44.57
2019-05-20T21:27:36.659Z,41.83
2019-05-20T21:30:07.283Z,38.57
2019-05-20T21:32:36.581Z,40.03
2019-05-20T21:35:06.367Z,35.23
2019-05-20T21:37:36.642Z,35.30
2019-05-20T21:40:07.254Z,35.80
2019-05-20T21:42:36.915Z,38.90
2019-05-20T21:45:07.296Z,36.37
2019-05-20T21:47:36.648Z,36.97
2019-05-20T21:50:06.770Z,35.80
2019-05-20T21:52:36.080Z,37.97
2019-05-20T21:55:06.491Z,35.30
2019-05-20T21:57:35.788Z,38.20
2019-05-20T22:00:11.335Z,36.73
2019-05-20T22:02:42.246Z,39.53
2019-05-20T22:05:11.682Z,38.97
2019-05-20T22:07:40.995Z,42.27
2019-05-20T22:10:10.362Z,40.90
2019-05-20T22:12:39.650Z,42.47
2019-05-20T22:15:08.947Z,39.57
2019-05-20T22:17:38.242Z,40.90
2019-05-20T22:20:07.595Z,39.73
2019-05-20T22:22:41.510Z,41.77
2019-05-20T22:25:10.883Z,40.17
2019-05-20T22:27:40.170Z,39.50
2019-05-20T22:30:10.099Z,44.17
2019-05-20T22:32:39.405Z,42.23
2019-05-20T22:35:08.760Z,47.13
2019-05-20T22:37:38.058Z,45.17
2019-05-20T22:40:07.609Z,42.17
2019-05-20T22:42:37.168Z,45.93
2019-05-20T22:45:06.884Z,47.87
2019-05-20T22:47:36.187Z,45.73
2019-05-20T22:50:06.022Z,47.23
2019-05-20T22:52:35.398Z,53.17
2019-05-20T22:55:05.814Z,49.80
2019-05-20T22:57:35.122Z,50.13
2019-05-20T23:00:05.753Z,49.37
2019-05-20T23:02:36.659Z,58.07
2019-05-20T23:05:06.232Z,52.70
2019-05-20T23:07:35.523Z,51.83
2019-05-20T23:10:08.259Z,55.43
2019-05-20T23:12:37.550Z,57.30
2019-05-20T23:15:07.282Z,53.37
2019-05-20T23:17:36.569Z,52.73
2019-05-20T23:20:06.552Z,51.63
2019-05-20T23:22:35.848Z,51.70
2019-05-20T23:25:05.722Z,53.27
2019-05-20T23:27:35.028Z,52.47
2019-05-20T23:30:06.356Z,54.57
2019-05-20T23:32:35.660Z,50.90
2019-05-20T23:35:06.483Z,50.57
2019-05-20T23:37:35.772Z,50.10
2019-05-20T23:40:06.613Z,54.80
2019-05-20T23:42:35.904Z,49.83
2019-05-20T23:45:06.907Z,49.93
2019-05-20T23:47:36.199Z,45.77
2019-05-20T23:50:06.637Z,41.73
2019-05-20T23:52:35.910Z,39.37
2019-05-20T23:55:07.540Z,41.23
2019-05-20T23:57:36.823Z,41.90
